Time;durP1;ratioP1;P1;durP2;ratioP2;P2;SDS_P1;SDS_P2;PMS_P1;PMS_P2;Temp;Humidity;BMP_temperature;BMP_pressure;BME280_temperature;BME280_humidity;BME280_pressure;Samples;Min_cycle;Max_cycle;Signal;HPM_P1;HPM_P2
2023/07/28 00:00:47;;;;;;;8.73;3.13;;;;;;;-142.75;100.00;74993.84;5067692;28;20125;-66
2023/07/28 00:03:13;;;;;;;8.80;3.38;;;;;;;-142.75;100.00;74985.97;5078704;28;20077;-66
2023/07/28 00:05:38;;;;;;;7.68;3.00;;;;;;;-142.75;100.00;74982.03;5088091;28;20065;-66
2023/07/28 00:08:03;;;;;;;12.57;3.92;;;;;;;-142.75;100.00;74995.81;5088227;28;20482;-66
2023/07/28 00:10:29;;;;;;;10.60;2.65;;;;;;;-142.75;100.00;74995.81;5071569;28;20021;-63
2023/07/28 00:12:54;;;;;;;13.68;3.55;;;;;;;-142.75;100.00;74995.81;5076156;28;20098;-66
2023/07/28 00:15:19;;;;;;;11.55;3.58;;;;;;;-142.75;100.00;74995.81;5074476;28;20490;-66
2023/07/28 00:17:45;;;;;;;14.23;4.57;;;;;;;-142.75;100.00;74993.84;5071772;28;20418;-66
2023/07/28 00:20:11;;;;;;;8.27;3.90;;;;;;;-142.75;100.00;74989.91;5067797;28;20370;-66
2023/07/28 00:22:36;;;;;;;10.77;3.90;;;;;;;-142.75;100.00;74968.28;5069666;28;20024;-66
2023/07/28 00:25:02;;;;;;;10.38;4.00;;;;;;;-142.75;100.00;74982.03;5071450;28;20012;-66
2023/07/28 00:27:27;;;;;;;9.10;4.18;;;;;;;-142.75;100.00;74968.28;5072604;28;20093;-65
2023/07/28 00:29:52;;;;;;;13.00;4.40;;;;;;;-142.75;100.00;74976.16;5071692;28;20024;-66
2023/07/28 00:32:18;;;;;;;9.98;4.57;;;;;;;-142.75;100.00;74980.06;5070074;28;20024;-66
2023/07/28 00:34:43;;;;;;;11.43;4.07;;;;;;;-142.75;100.00;74980.06;5069815;28;20460;-66
2023/07/28 00:37:08;;;;;;;10.65;5.22;;;;;;;-142.75;100.00;74972.22;5071179;28;20020;-66
2023/07/28 00:39:34;;;;;;;10.15;4.63;;;;;;;-142.75;100.00;74980.06;5071124;28;20375;-65
2023/07/28 00:41:59;;;;;;;14.30;5.22;;;;;;;-142.75;100.00;74964.34;5070908;28;20048;-66
2023/07/28 00:44:24;;;;;;;11.95;4.53;;;;;;;-142.75;100.00;74970.25;5071335;28;20645;-66
2023/07/28 00:46:50;;;;;;;12.93;5.00;;;;;;;-142.75;100.00;74976.16;5077179;28;20023;-67
2023/07/28 00:49:16;;;;;;;14.52;4.95;;;;;;;-142.75;100.00;74976.16;5071048;28;20028;-66
2023/07/28 00:51:41;;;;;;;10.70;4.80;;;;;;;-142.75;100.00;74984.00;5082160;28;20024;-66
2023/07/28 00:54:06;;;;;;;15.57;5.43;;;;;;;-142.75;100.00;74989.91;5091061;28;20102;-65
2023/07/28 00:56:32;;;;;;;10.90;4.93;;;;;;;-142.75;100.00;74978.13;5091074;28;20015;-65
2023/07/28 00:58:58;;;;;;;15.13;5.03;;;;;;;-142.75;100.00;74976.16;5090397;28;20016;-66
2023/07/28 01:01:23;;;;;;;12.02;4.88;;;;;;;-142.75;100.00;74987.94;5090544;28;20098;-65
2023/07/28 01:03:50;;;;;;;15.95;5.57;;;;;;;-142.75;100.00;74980.06;5089673;28;20499;-66
2023/07/28 01:06:51;;;;;;;13.13;5.00;;;;;;;-142.75;100.00;74956.47;5090663;28;20110;-66
2023/07/28 01:09:21;;;;;;;13.93;4.93;;;;;;;-142.75;100.00;74964.34;5086320;28;20090;-65
2023/07/28 01:12:09;;;;;;;12.77;4.70;;;;;;;-142.75;100.00;74972.22;5068845;28;20032;-66
2023/07/28 01:14:34;;;;;;;16.17;5.70;;;;;;;-142.75;100.00;74980.06;5070604;28;20052;-66
2023/07/28 01:16:59;;;;;;;9.90;4.20;;;;;;;-142.75;100.00;74984.00;5070436;28;20092;-66
2023/07/28 01:19:25;;;;;;;12.02;5.05;;;;;;;-142.75;100.00;74984.00;5070663;28;20382;-65
2023/07/28 01:22:06;;;;;;;12.13;4.82;;;;;;;-142.75;100.00;74962.38;5070189;28;20090;-67
2023/07/28 01:24:44;;;;;;;12.90;5.28;;;;;;;-142.75;100.00;74944.66;5071497;28;20024;-65
2023/07/28 01:27:10;;;;;;;10.82;4.80;;;;;;;-142.75;100.00;74960.41;5070195;28;20099;-66
2023/07/28 01:29:36;;;;;;;15.18;5.85;;;;;;;-142.75;100.00;74972.22;5070029;28;20024;-65
2023/07/28 01:32:03;;;;;;;9.32;4.90;;;;;;;-142.75;100.00;74956.47;5069877;28;20028;-66
2023/07/28 01:34:29;;;;;;;20.33;5.53;;;;;;;-142.75;100.00;74976.16;5069098;28;20052;-66
2023/07/28 01:36:54;;;;;;;15.73;5.05;;;;;;;-142.75;100.00;74972.22;5087785;28;20096;-65
2023/07/28 01:39:19;;;;;;;18.40;6.15;;;;;;;-142.75;100.00;74978.13;5090316;28;20031;-65
2023/07/28 01:41:45;;;;;;;14.05;5.10;;;;;;;-142.75;100.00;74970.25;5089630;28;20070;-66
2023/07/28 01:44:10;;;;;;;11.98;5.00;;;;;;;-142.75;100.00;74956.47;5090084;28;20028;-66
2023/07/28 01:46:36;;;;;;;14.75;5.03;;;;;;;-142.75;100.00;74974.19;5089348;28;20439;-66
2023/07/28 01:49:01;;;;;;;17.83;5.60;;;;;;;-142.75;100.00;74970.25;5089900;28;20024;-66
2023/07/28 01:51:26;;;;;;;16.98;5.40;;;;;;;-142.75;100.00;74964.34;5089421;28;20020;-66
2023/07/28 01:53:52;;;;;;;15.48;6.10;;;;;;;-142.75;100.00;74982.03;5090158;28;20015;-66
2023/07/28 01:56:17;;;;;;;11.50;5.38;;;;;;;-142.75;100.00;74978.13;5090263;28;20352;-66
2023/07/28 01:58:42;;;;;;;13.43;5.38;;;;;;;-142.75;100.00;74968.28;5089938;28;20521;-66
2023/07/28 02:01:08;;;;;;;14.43;5.53;;;;;;;-142.75;100.00;74976.16;5089406;28;20032;-66
2023/07/28 02:03:33;;;;;;;16.48;6.30;;;;;;;-142.75;100.00;74956.47;5089469;28;20020;-66
2023/07/28 02:05:58;;;;;;;15.80;6.43;;;;;;;-142.75;100.00;74976.16;5089410;28;20066;-66
2023/07/28 02:08:23;;;;;;;15.32;6.05;;;;;;;-142.75;100.00;74968.28;5089472;28;20031;-66
2023/07/28 02:10:49;;;;;;;13.27;5.90;;;;;;;-142.75;100.00;74968.28;5089301;28;20030;-65
2023/07/28 02:13:14;;;;;;;16.30;6.70;;;;;;;-142.75;100.00;74964.34;5089295;28;20023;-66
2023/07/28 02:15:39;;;;;;;20.25;6.93;;;;;;;-142.75;100.00;74970.25;5089610;28;20020;-66
2023/07/28 02:18:05;;;;;;;17.13;6.47;;;;;;;-142.75;100.00;74972.22;5089336;28;20028;-66
2023/07/28 02:20:30;;;;;;;18.55;5.97;;;;;;;-142.75;100.00;74978.13;5087505;28;20054;-66
2023/07/28 02:22:56;;;;;;;16.60;6.30;;;;;;;-142.75;100.00;74950.56;5088102;28;20039;-66
2023/07/28 02:25:21;;;;;;;15.73;7.18;;;;;;;-142.75;100.00;74968.28;5089249;28;20051;-65
2023/07/28 02:27:47;;;;;;;17.90;6.00;;;;;;;-142.75;100.00;74948.59;5089473;28;20027;-66
2023/07/28 02:30:12;;;;;;;15.70;5.32;;;;;;;-142.75;100.00;74938.75;5089385;28;20012;-66
2023/07/28 02:32:37;;;;;;;19.67;7.28;;;;;;;-142.75;100.00;74946.63;5088954;28;20436;-66
2023/07/28 02:35:03;;;;;;;16.45;6.25;;;;;;;-142.75;100.00;74952.53;5089035;28;20050;-66
2023/07/28 02:37:28;;;;;;;17.02;7.22;;;;;;;-142.75;100.00;74952.53;5088918;28;20060;-65
2023/07/28 02:39:54;;;;;;;19.50;5.38;;;;;;;-142.75;100.00;74958.44;5089045;28;20071;-66
2023/07/28 02:42:19;;;;;;;16.95;6.18;;;;;;;-142.75;100.00;74962.38;5088027;28;20026;-65
2023/07/28 02:44:44;;;;;;;21.25;6.55;;;;;;;-142.75;100.00;74972.22;5087863;28;20035;-66
2023/07/28 02:47:10;;;;;;;16.38;6.43;;;;;;;-142.75;100.00;74966.31;5088829;28;20181;-66
2023/07/28 02:49:35;;;;;;;19.58;6.25;;;;;;;-142.75;100.00;74972.22;5088621;28;20030;-65
2023/07/28 02:52:02;;;;;;;17.88;6.60;;;;;;;-142.75;100.00;74984.00;5077065;28;20032;-66
2023/07/28 02:54:28;;;;;;;18.83;6.88;;;;;;;-142.75;100.00;74982.03;5068439;28;20042;-66
2023/07/28 02:56:53;;;;;;;20.58;6.45;;;;;;;-142.75;100.00;74964.34;5068511;28;20463;-65
2023/07/28 02:59:19;;;;;;;18.58;6.55;;;;;;;-142.75;100.00;74964.34;5068653;28;20029;-66
2023/07/28 03:01:44;;;;;;;19.48;6.10;;;;;;;-142.75;100.00;74980.06;5066809;28;20024;-66
2023/07/28 03:04:10;;;;;;;22.48;7.03;;;;;;;-142.75;100.00;74968.28;5068420;28;20419;-66
2023/07/28 03:06:35;;;;;;;21.33;7.45;;;;;;;-142.75;100.00;74980.06;5068774;28;20032;-66
2023/07/28 03:09:00;;;;;;;17.58;6.88;;;;;;;-142.75;100.00;74972.22;5068442;28;20005;-66
2023/07/28 03:11:26;;;;;;;21.88;6.90;;;;;;;-142.75;100.00;74974.19;5066658;28;20066;-66
2023/07/28 03:13:51;;;;;;;17.58;6.45;;;;;;;-142.75;100.00;74991.88;5068354;28;20027;-66
2023/07/28 03:16:16;;;;;;;21.83;6.82;;;;;;;-142.75;100.00;74987.94;5068570;28;20095;-66
2023/07/28 03:18:42;;;;;;;15.35;6.47;;;;;;;-142.75;100.00;74982.03;5068224;28;20024;-66
2023/07/28 03:21:09;;;;;;;13.18;6.00;;;;;;;-142.75;100.00;74968.28;5067806;28;20016;-66
2023/07/28 03:23:34;;;;;;;20.55;7.30;;;;;;;-142.75;100.00;74968.28;5068210;28;20493;-65
2023/07/28 03:26:00;;;;;;;14.05;5.78;;;;;;;-142.75;100.00;74970.25;5068363;28;20028;-66
2023/07/28 03:28:25;;;;;;;25.25;6.57;;;;;;;-142.75;100.00;74964.34;5068362;28;20078;-66
2023/07/28 03:30:50;;;;;;;19.50;6.78;;;;;;;-142.75;100.00;74970.25;5067923;28;20549;-66
2023/07/28 03:33:16;;;;;;;17.42;5.82;;;;;;;-142.75;100.00;74964.34;5068297;28;20086;-66
2023/07/28 03:35:41;;;;;;;21.92;7.30;;;;;;;-142.75;100.00;74972.22;5067024;28;20479;-66
2023/07/28 03:38:06;;;;;;;18.35;6.57;;;;;;;-142.75;100.00;74970.25;5068319;28;20022;-65
2023/07/28 03:40:32;;;;;;;15.02;5.88;;;;;;;-142.75;100.00;74978.13;5067972;28;20012;-65
2023/07/28 03:42:57;;;;;;;16.05;6.20;;;;;;;-142.75;100.00;75001.72;5068347;28;20107;-66
2023/07/28 03:45:23;;;;;;;20.30;6.68;;;;;;;-142.75;100.00;74982.03;5078027;28;20058;-65
2023/07/28 03:47:48;;;;;;;20.27;6.93;;;;;;;-142.75;100.00;74985.97;5079160;28;20078;-66
2023/07/28 03:50:13;;;;;;;15.82;6.40;;;;;;;-142.75;100.00;74972.22;5067854;28;20024;-66
2023/07/28 03:52:39;;;;;;;16.58;6.07;;;;;;;-142.75;100.00;74978.13;5067668;28;20407;-66
2023/07/28 03:55:04;;;;;;;17.05;7.18;;;;;;;-142.75;100.00;74980.06;5067936;28;20096;-65
2023/07/28 03:57:30;;;;;;;21.92;7.20;;;;;;;-142.75;100.00;74972.22;5068615;28;20044;-65
2023/07/28 03:59:55;;;;;;;18.70;6.40;;;;;;;-142.75;100.00;74980.06;5071841;28;20471;-66
2023/07/28 04:02:20;;;;;;;12.68;6.32;;;;;;;-142.75;100.00;75001.72;5071525;28;20465;-66
2023/07/28 04:04:46;;;;;;;16.88;6.40;;;;;;;-142.75;100.00;74987.94;5070577;28;20023;-66
2023/07/28 04:07:11;;;;;;;15.07;5.90;;;;;;;-142.75;100.00;74987.94;5071737;28;20024;-66
2023/07/28 04:09:37;;;;;;;25.42;7.43;;;;;;;-142.75;100.00;74987.94;5070219;28;20016;-66
2023/07/28 04:12:02;;;;;;;19.63;6.53;;;;;;;-142.75;100.00;74976.16;5083692;28;20562;-65
2023/07/28 04:14:27;;;;;;;18.40;6.68;;;;;;;-142.75;100.00;74999.75;5091886;28;20024;-66
2023/07/28 04:16:53;;;;;;;19.40;7.15;;;;;;;-142.75;100.00;74993.84;5086891;28;20046;-65
2023/07/28 04:19:18;;;;;;;16.20;6.35;;;;;;;-142.75;100.00;74985.97;5071426;28;20024;-66
2023/07/28 04:21:43;;;;;;;15.18;6.40;;;;;;;-142.75;100.00;74999.75;5071105;28;20020;-66
2023/07/28 04:24:09;;;;;;;17.20;5.97;;;;;;;-142.75;100.00;75003.69;5071461;28;20037;-65
2023/07/28 04:26:35;;;;;;;17.27;6.47;;;;;;;-142.75;100.00;74982.03;5071368;28;20024;-65
2023/07/28 04:29:00;;;;;;;19.40;6.32;;;;;;;-142.75;100.00;74987.94;5071214;28;20024;-66
2023/07/28 04:31:26;;;;;;;20.90;6.15;;;;;;;-142.75;100.00;74984.00;5070896;28;20028;-65
2023/07/28 04:33:51;;;;;;;15.45;6.43;;;;;;;-142.75;100.00;74984.00;5071400;28;20031;-67
2023/07/28 04:36:16;;;;;;;13.98;5.57;;;;;;;-142.75;100.00;74980.06;5087033;28;20100;-66
2023/07/28 04:38:42;;;;;;;15.93;6.07;;;;;;;-142.75;100.00;74974.19;5091388;28;20371;-66
2023/07/28 04:41:07;;;;;;;11.68;5.88;;;;;;;-142.75;100.00;74980.06;5090807;28;20475;-65
2023/07/28 04:43:33;;;;;;;22.42;6.10;;;;;;;-142.75;100.00;74991.88;5091460;28;20020;-65
2023/07/28 04:45:58;;;;;;;18.35;6.57;;;;;;;-142.75;100.00;74999.75;5091486;28;20081;-66
2023/07/28 04:48:23;;;;;;;19.98;6.30;;;;;;;-142.75;100.00;74987.94;5091248;28;20094;-65
2023/07/28 04:50:49;;;;;;;15.02;5.90;;;;;;;-142.75;100.00;74991.88;5091006;28;20039;-66
2023/07/28 04:53:14;;;;;;;17.15;5.75;;;;;;;-142.75;100.00;74984.00;5091070;28;20020;-66
2023/07/28 04:55:40;;;;;;;17.20;5.30;;;;;;;-142.75;100.00;74982.03;5091179;28;20023;-66
2023/07/28 04:58:05;;;;;;;14.40;5.82;;;;;;;-142.75;100.00;74978.13;5090913;28;20022;-66
2023/07/28 05:00:30;;;;;;;19.02;6.38;;;;;;;-142.75;100.00;74976.16;5090641;28;20059;-66
2023/07/28 05:02:56;;;;;;;20.60;6.10;;;;;;;-142.75;100.00;74978.13;5090941;28;20498;-66
2023/07/28 05:05:21;;;;;;;27.38;6.72;;;;;;;-142.75;100.00;74982.03;5077608;28;20134;-68
2023/07/28 05:07:46;;;;;;;19.00;6.28;;;;;;;-142.75;100.00;74982.03;5069952;28;20032;-65
2023/07/28 05:10:12;;;;;;;15.70;5.85;;;;;;;-142.75;100.00;74978.13;5087097;28;20027;-65
2023/07/28 05:12:37;;;;;;;19.15;6.15;;;;;;;-142.75;100.00;74968.28;5090242;28;20356;-66
2023/07/28 05:15:04;;;;;;;14.52;5.55;;;;;;;-142.75;100.00;74956.47;5090673;28;20016;-66
2023/07/28 05:17:29;;;;;;;18.10;5.75;;;;;;;-142.75;100.00;74972.22;5088814;28;20031;-66
2023/07/28 05:19:55;;;;;;;15.40;6.35;;;;;;;-142.75;100.00;74972.22;5090526;28;20024;-65
2023/07/28 05:22:20;;;;;;;14.98;5.55;;;;;;;-142.75;100.00;74991.88;5075718;28;20040;-66
2023/07/28 05:24:45;;;;;;;19.30;5.97;;;;;;;-142.75;100.00;74980.06;5070498;28;20495;-66
2023/07/28 05:27:11;;;;;;;21.90;6.00;;;;;;;-142.75;100.00;74980.06;5070362;28;20016;-66
2023/07/28 05:29:36;;;;;;;16.85;5.65;;;;;;;-142.75;100.00;74985.97;5069105;28;20486;-65
2023/07/28 05:32:03;;;;;;;14.98;5.35;;;;;;;-142.75;100.00;74978.13;5068408;28;20020;-65
2023/07/28 05:34:29;;;;;;;17.10;6.00;;;;;;;-142.75;100.00;74978.13;5070136;28;20064;-66
2023/07/28 05:36:54;;;;;;;16.15;5.85;;;;;;;-142.75;100.00;74982.03;5070083;28;20048;-65
2023/07/28 05:39:20;;;;;;;13.25;5.55;;;;;;;-142.75;100.00;74980.06;5070138;28;20020;-66
2023/07/28 05:41:45;;;;;;;14.52;5.53;;;;;;;-142.75;100.00;74980.06;5069384;28;20023;-66
2023/07/28 05:44:10;;;;;;;17.58;5.88;;;;;;;-142.75;100.00;74985.97;5070033;28;20028;-65
2023/07/28 05:46:36;;;;;;;16.80;5.70;;;;;;;-142.75;100.00;74987.94;5069821;28;20017;-65
2023/07/28 05:49:01;;;;;;;15.88;5.30;;;;;;;-142.75;100.00;74989.91;5069670;28;20024;-66
2023/07/28 05:51:26;;;;;;;16.80;5.60;;;;;;;-142.75;100.00;74991.88;5069495;28;20520;-66
2023/07/28 05:53:52;;;;;;;21.60;5.70;;;;;;;-142.75;100.00;74993.84;5069732;28;20027;-66
2023/07/28 05:56:20;;;;;;;16.17;5.93;;;;;;;-142.75;100.00;74997.78;5069824;28;20023;-66
2023/07/28 05:58:47;;;;;;;18.33;6.13;;;;;;;-142.75;100.00;75007.63;5069586;28;20024;-66
2023/07/28 06:01:12;;;;;;;17.77;6.55;;;;;;;-142.75;100.00;75003.69;5068214;28;20065;-66
2023/07/28 06:03:38;;;;;;;13.20;6.03;;;;;;;-142.75;100.00;74991.88;5069595;28;20021;-66
2023/07/28 06:06:03;;;;;;;16.05;6.15;;;;;;;-142.75;100.00;74991.88;5078159;28;20036;-66
2023/07/28 06:08:29;;;;;;;11.75;4.88;;;;;;;-142.75;100.00;74999.75;5089708;28;20016;-66
2023/07/28 06:10:54;;;;;;;17.20;5.53;;;;;;;-142.75;100.00;74999.75;5086203;28;20024;-65
2023/07/28 06:13:20;;;;;;;17.67;6.28;;;;;;;-142.75;100.00;75003.69;5089466;28;20030;-65
2023/07/28 06:15:46;;;;;;;15.05;5.95;;;;;;;-142.75;100.00;74999.75;5089248;28;20062;-66
2023/07/28 06:18:12;;;;;;;16.33;5.63;;;;;;;-142.75;100.00;75021.41;5089223;28;20039;-66
2023/07/28 06:20:37;;;;;;;17.23;6.38;;;;;;;-142.75;100.00;75015.50;5088836;28;20027;-66
2023/07/28 06:23:02;;;;;;;11.77;5.57;;;;;;;-142.75;100.00;75009.59;5089397;28;20023;-66
2023/07/28 06:25:28;;;;;;;17.08;5.38;;;;;;;-142.75;100.00;75005.66;5089352;28;20035;-66
2023/07/28 06:27:53;;;;;;;12.43;5.88;;;;;;;-142.75;100.00;75017.47;5088910;28;20024;-66
2023/07/28 06:30:18;;;;;;;19.98;6.47;;;;;;;-142.75;100.00;75031.25;5089010;28;20027;-66
2023/07/28 06:32:44;;;;;;;11.80;5.05;;;;;;;-142.75;100.00;75019.44;5089008;28;20387;-66
2023/07/28 06:35:09;;;;;;;10.07;5.28;;;;;;;-142.75;100.00;75017.47;5089512;28;20471;-66
2023/07/28 06:37:38;;;;;;;17.38;5.70;;;;;;;-142.75;100.00;75003.69;5082323;28;20024;-66
2023/07/28 06:40:06;;;;;;;11.68;4.93;;;;;;;-142.75;100.00;75017.47;5089113;28;20020;-66
2023/07/28 06:42:33;;;;;;;10.77;5.38;;;;;;;-142.75;100.00;75015.50;5088272;28;20024;-66
2023/07/28 06:44:58;;;;;;;9.68;4.80;;;;;;;-142.75;100.00;75033.22;5089016;28;20028;-65
2023/07/28 06:47:24;;;;;;;9.30;4.90;;;;;;;-142.75;100.00;75025.34;5089316;28;20081;-65
2023/07/28 06:49:49;;;;;;;10.98;4.45;;;;;;;-142.75;100.00;75027.31;5088889;28;20082;-66
2023/07/28 06:52:14;;;;;;;14.85;4.95;;;;;;;-142.75;100.00;75039.13;5088511;28;20540;-66
2023/07/28 06:54:40;;;;;;;13.27;4.35;;;;;;;-142.75;100.00;75039.13;5088961;28;20433;-65
2023/07/28 06:57:06;;;;;;;8.32;4.47;;;;;;;-142.75;100.00;75033.22;5088677;28;20039;-66
2023/07/28 06:59:32;;;;;;;8.20;4.00;;;;;;;-142.75;100.00;75039.13;5088722;28;20028;-65
2023/07/28 07:01:57;;;;;;;9.02;3.60;;;;;;;-142.75;100.00;75033.22;5088266;28;20035;-66
2023/07/28 07:04:22;;;;;;;9.93;4.18;;;;;;;-142.75;100.00;75050.91;5088486;28;20186;-65
2023/07/28 07:06:48;;;;;;;9.70;4.65;;;;;;;-142.75;100.00;75050.91;5088921;28;20016;-66
2023/07/28 07:09:16;;;;;;;14.32;5.88;;;;;;;-142.75;100.00;75058.78;5088522;28;20012;-66
2023/07/28 07:11:41;;;;;;;9.70;5.00;;;;;;;-142.75;100.00;75050.91;5082567;28;21096;-66
2023/07/28 07:14:07;;;;;;;12.60;5.40;;;;;;;-142.75;100.00;75060.75;5069442;28;20095;-66
2023/07/28 07:16:32;;;;;;;13.77;5.38;;;;;;;-142.75;100.00;75054.84;5069169;28;20501;-66
2023/07/28 07:18:58;;;;;;;8.90;4.82;;;;;;;-142.75;100.00;75056.81;5068332;28;20016;-66
2023/07/28 07:21:23;;;;;;;10.95;4.43;;;;;;;-142.75;100.00;75082.41;5075572;28;20502;-65
2023/07/28 07:23:49;;;;;;;11.95;4.88;;;;;;;-142.75;100.00;75052.88;5077562;28;20223;-65
2023/07/28 07:26:14;;;;;;;9.15;4.10;;;;;;;-142.75;100.00;75062.72;5088173;28;20109;-64
2023/07/28 07:28:39;;;;;;;7.55;3.83;;;;;;;-142.75;100.00;75058.78;5088567;28;20347;-65
2023/07/28 07:31:12;;;;;;;10.15;4.18;;;;;;;-142.75;100.00;75045.00;5072668;28;20486;-65
2023/07/28 07:33:37;;;;;;;8.98;3.83;;;;;;;-142.75;100.00;75050.91;5080165;28;20386;-65
2023/07/28 07:36:03;;;;;;;9.15;3.75;;;;;;;-142.75;100.00;75054.84;5078079;28;20066;-65
2023/07/28 07:38:28;;;;;;;6.13;3.25;;;;;;;-142.75;100.00;75043.03;5075438;28;20463;-65
2023/07/28 07:40:54;;;;;;;11.55;3.83;;;;;;;-142.75;100.00;75043.03;5079119;28;20025;-65
2023/07/28 07:43:20;;;;;;;6.10;3.65;;;;;;;-142.75;100.00;75058.78;5074617;28;20038;-65
2023/07/28 07:45:46;;;;;;;11.32;4.35;;;;;;;-142.75;100.00;75046.97;5082138;28;20028;-65
2023/07/28 07:48:12;;;;;;;8.27;4.28;;;;;;;-142.75;100.00;75066.66;5073762;28;20119;-65
2023/07/28 07:50:38;;;;;;;8.52;3.72;;;;;;;-142.75;100.00;75054.84;5078127;28;20438;-65
2023/07/28 07:53:03;;;;;;;9.98;4.18;;;;;;;-142.75;100.00;75066.66;5084258;28;20024;-65
2023/07/28 07:55:28;;;;;;;12.48;4.05;;;;;;;-142.75;100.00;75054.84;5084947;28;20123;-65
2023/07/28 07:57:54;;;;;;;7.63;3.47;;;;;;;-142.75;100.00;75050.91;5084844;28;20016;-64
2023/07/28 08:00:19;;;;;;;11.27;4.05;;;;;;;-142.75;100.00;75046.97;5085675;28;20020;-65
2023/07/28 08:02:44;;;;;;;16.30;4.28;;;;;;;-142.75;100.00;75046.97;5082289;28;20016;-64
2023/07/28 08:05:10;;;;;;;12.57;3.72;;;;;;;-142.75;100.00;75031.25;5079135;28;20043;-65
2023/07/28 08:07:35;;;;;;;11.90;4.25;;;;;;;-142.75;100.00;75037.16;5079492;28;20024;-65
2023/07/28 08:10:01;;;;;;;13.98;4.38;;;;;;;-142.75;100.00;75015.50;5086842;28;20031;-65
2023/07/28 08:12:27;;;;;;;10.73;4.35;;;;;;;-142.75;100.00;74993.84;5088206;28;20016;-65
2023/07/28 08:14:53;;;;;;;10.13;3.63;;;;;;;-142.75;100.00;74974.19;5073852;28;20127;-65
2023/07/28 08:17:19;;;;;;;11.82;4.90;;;;;;;-142.75;100.00;74984.00;5078419;28;20067;-65
2023/07/28 08:19:44;;;;;;;7.47;3.97;;;;;;;-142.75;100.00;74984.00;5073811;28;20012;-65
2023/07/28 08:22:09;;;;;;;13.98;4.20;;;;;;;-142.75;100.00;74991.88;5068401;28;20027;-65
2023/07/28 08:24:35;;;;;;;13.68;4.38;;;;;;;-142.75;100.00;75007.63;5069322;28;20020;-65
2023/07/28 08:27:00;;;;;;;8.73;3.70;;;;;;;-142.75;100.00;74995.81;5070402;28;20021;-64
2023/07/28 08:29:26;;;;;;;12.65;5.25;;;;;;;-142.75;100.00;75015.50;5074113;28;20506;-63
2023/07/28 08:31:51;;;;;;;13.38;4.57;;;;;;;-142.75;100.00;75019.44;5073342;28;20676;-64
2023/07/28 08:34:17;;;;;;;10.65;4.43;;;;;;;-142.75;100.00;75031.25;5080033;28;20024;-64
2023/07/28 08:36:43;;;;;;;10.95;3.97;;;;;;;-142.75;100.00;75007.63;5081777;28;20024;-64
2023/07/28 08:39:09;;;;;;;8.60;4.60;;;;;;;-142.75;100.00;74999.75;5086355;28;20031;-64
2023/07/28 08:41:35;;;;;;;12.30;4.72;;;;;;;-142.75;100.00;74999.75;5086375;28;20022;-64
2023/07/28 08:44:00;;;;;;;10.88;3.58;;;;;;;-142.75;100.00;75015.50;5072818;28;20041;-63
2023/07/28 08:46:26;;;;;;;11.63;4.00;;;;;;;-142.75;100.00;75029.28;5076017;28;20078;-66
2023/07/28 08:48:51;;;;;;;10.52;3.78;;;;;;;-142.75;100.00;75029.28;5074698;28;20522;-65
2023/07/28 08:51:16;;;;;;;17.33;4.13;;;;;;;-142.75;100.00;75017.47;5075182;28;20024;-65
2023/07/28 08:53:42;;;;;;;9.70;4.20;;;;;;;-142.75;100.00;75023.38;5078401;28;20468;-66
2023/07/28 08:56:08;;;;;;;9.10;3.80;;;;;;;-142.75;100.00;75009.59;5070600;28;20484;-66
2023/07/28 08:58:34;;;;;;;7.88;3.83;;;;;;;-142.75;100.00;75039.13;5072424;28;20024;-66
2023/07/28 09:01:02;;;;;;;8.93;4.03;;;;;;;-142.75;100.00;75023.38;5069705;28;20027;-65
2023/07/28 09:03:29;;;;;;;8.45;3.85;;;;;;;-142.75;100.00;75019.44;5070569;28;20561;-65
2023/07/28 09:06:02;;;;;;;10.13;3.88;;;;;;;-142.75;100.00;75019.44;5070105;28;20024;-65
2023/07/28 09:08:30;;;;;;;6.40;3.45;;;;;;;-142.75;100.00;75031.25;5070123;28;20048;-65
2023/07/28 09:10:55;;;;;;;8.40;3.60;;;;;;;-142.75;100.00;75023.38;5071308;28;20024;-65
2023/07/28 09:13:20;;;;;;;9.32;4.18;;;;;;;-142.75;100.00;75023.38;5070309;28;20027;-65
2023/07/28 09:15:49;;;;;;;9.32;3.97;;;;;;;-142.75;100.00;75023.38;5071719;28;20086;-66
2023/07/28 09:18:16;;;;;;;8.77;3.63;;;;;;;-142.75;100.00;75007.63;5073443;28;20031;-66
2023/07/28 09:20:42;;;;;;;9.23;4.20;;;;;;;-142.75;100.00;75035.19;5077438;28;20114;-65
2023/07/28 09:23:09;;;;;;;9.85;3.90;;;;;;;-142.75;100.00;75031.25;5075128;28;20544;-65
2023/07/28 09:25:36;;;;;;;9.55;3.63;;;;;;;-142.75;100.00;74982.03;5071725;28;20081;-65
2023/07/28 09:28:02;;;;;;;8.98;3.78;;;;;;;-142.75;100.00;74938.75;5069274;28;20025;-65
2023/07/28 09:30:44;;;;;;;7.40;3.80;;;;;;;-142.75;100.00;74938.75;5070470;28;20033;-66
2023/07/28 09:33:09;;;;;;;8.27;3.67;;;;;;;-142.75;100.00;74948.59;5070363;28;20091;-65
2023/07/28 09:35:47;;;;;;;10.50;3.95;;;;;;;-142.75;100.00;74948.59;5072069;28;20107;-66
2023/07/28 09:38:14;;;;;;;12.80;3.70;;;;;;;-142.75;100.00;74962.38;5073675;28;20107;-65
2023/07/28 09:40:40;;;;;;;7.38;3.03;;;;;;;-142.75;100.00;74976.16;5076906;28;20078;-65
2023/07/28 09:43:06;;;;;;;7.38;3.30;;;;;;;-142.75;100.00;74984.00;5074245;28;20028;-65
2023/07/28 09:45:32;;;;;;;7.15;3.30;;;;;;;-142.75;100.00;74991.88;5075713;28;20381;-65
2023/07/28 09:48:02;;;;;;;9.38;3.65;;;;;;;-142.75;100.00;75029.28;5078809;28;20031;-65
2023/07/28 09:50:31;;;;;;;7.03;3.30;;;;;;;-142.75;100.00;75031.25;5083372;28;20541;-65
2023/07/28 09:53:01;;;;;;;5.93;3.17;;;;;;;-142.75;100.00;75017.47;5078041;28;20024;-64
2023/07/28 09:55:27;;;;;;;9.95;3.22;;;;;;;-142.75;100.00;75025.34;5077282;28;20089;-66
2023/07/28 09:57:55;;;;;;;7.68;3.00;;;;;;;-142.75;100.00;75011.56;5085543;28;20039;-65
2023/07/28 10:00:22;;;;;;;7.05;3.00;;;;;;;-142.75;100.00;75005.66;5076783;28;20033;-64
2023/07/28 10:02:49;;;;;;;7.80;3.80;;;;;;;-142.75;100.00;75003.69;5078051;28;20035;-64
2023/07/28 10:05:15;;;;;;;8.75;3.55;;;;;;;-142.75;100.00;74991.88;5082342;28;20128;-66
2023/07/28 10:07:43;;;;;;;9.13;3.15;;;;;;;-142.75;100.00;75007.63;5084368;28;20024;-65
2023/07/28 10:10:12;;;;;;;7.60;4.05;;;;;;;-142.75;100.00;75011.56;5075298;28;20074;-64
2023/07/28 10:12:42;;;;;;;10.55;3.17;;;;;;;-142.75;100.00;75045.00;5073809;28;20032;-65
2023/07/28 10:15:11;;;;;;;10.15;3.70;;;;;;;-142.75;100.00;75031.25;5069047;28;20078;-65
2023/07/28 10:17:36;;;;;;;7.85;3.58;;;;;;;-142.75;100.00;75021.41;5069753;28;20028;-65
2023/07/28 10:20:09;;;;;;;10.77;3.42;;;;;;;-142.75;100.00;74987.94;5069684;28;20024;-65
2023/07/28 10:22:46;;;;;;;7.10;2.97;;;;;;;-142.75;100.00;74974.19;5088495;28;20035;-65
2023/07/28 10:25:12;;;;;;;5.75;2.72;;;;;;;-142.75;100.00;74995.81;5069375;28;20024;-66
2023/07/28 10:27:39;;;;;;;6.25;2.65;;;;;;;-142.75;100.00;75005.66;5068381;28;20032;-65
2023/07/28 10:30:13;;;;;;;10.32;3.47;;;;;;;-142.75;100.00;75003.69;5066864;28;20020;-64
2023/07/28 10:32:42;;;;;;;9.00;2.92;;;;;;;-142.75;100.00;75001.72;5070420;28;20098;-65
2023/07/28 10:35:12;;;;;;;4.55;2.53;;;;;;;-142.75;100.00;75043.03;5069466;28;20020;-64
2023/07/28 10:37:38;;;;;;;10.75;2.70;;;;;;;-142.75;100.00;75017.47;5068266;28;20044;-65
2023/07/28 10:40:22;;;;;;;6.10;2.80;;;;;;;-142.75;100.00;74982.03;5072400;28;20391;-65
2023/07/28 10:42:47;;;;;;;7.78;3.38;;;;;;;-142.75;100.00;75001.72;5068427;28;20794;-65
2023/07/28 10:45:13;;;;;;;6.35;2.55;;;;;;;-142.75;100.00;74960.41;5070118;28;20040;-65
2023/07/28 10:47:39;;;;;;;6.57;2.42;;;;;;;-142.75;100.00;74936.78;5067954;28;20052;-66
2023/07/28 10:50:05;;;;;;;8.73;2.50;;;;;;;-142.75;100.00;74921.06;5068000;28;20415;-66
2023/07/28 10:52:31;;;;;;;7.10;2.50;;;;;;;-142.75;100.00;74940.72;5067651;28;20032;-66
2023/07/28 10:54:57;;;;;;;8.73;2.35;;;;;;;-142.75;100.00;74956.47;5067896;28;20024;-66
2023/07/28 10:57:26;;;;;;;4.80;2.30;;;;;;;-142.75;100.00;74948.59;5068101;28;20028;-65
2023/07/28 10:59:51;;;;;;;6.45;2.20;;;;;;;-142.75;100.00;74964.34;5067887;28;20026;-65